Pelsor, Arkansas
Current Conditions -  °F | °C
As of 5:53 PM on Sunday 25 Jan 2015 (Local Time) from KRUE Reporting Station
Overcast Overcast  
Wind Chill:   Ceiling: 4600
Heat Index:   Visibility: 10mi
Dew Point:   Wind: 20mph
Humidity: 52%   Direction: 310°NW
Pressure: 29.93"   Gusts: 29mph
Location:  35.7°N, 93.08°W
Report Text: KRUE 252353Z AUTO 31017G25KT 10SM BKN046 OVC070 09/00 A2993 RMK AO2 PK WND 30029/2304 SLP131 T00940000 10133 20094 51032
Loading
Personal Weather Stations






























Interactive Weather Map New forecast layout! Learn more

10-Day Weather Forecast

Advertisements
Track Severe Weather on mobile